Time;durP1;ratioP1;P1;durP2;ratioP2;P2;SDS_P1;SDS_P2;PMS_P1;PMS_P2;Temp;Humidity;BMP_temperature;BMP_pressure;BME280_temperature;BME280_humidity;BME280_pressure;Samples;Min_cycle;Max_cycle;Signal;HPM_P1;HPM_P2
2022/05/11 00:01:34;;;;;;;10.68;9.63;;;;;;;11.14;89.35;100908.94;4997328;28;20025;-84
2022/05/11 00:04:01;;;;;;;11.65;10.40;;;;;;;11.11;88.47;100888.91;4979788;28;20037;-84
2022/05/11 00:06:27;;;;;;;13.00;10.50;;;;;;;11.15;89.06;100894.94;4980010;28;20033;-84
2022/05/11 00:08:53;;;;;;;11.88;9.98;;;;;;;11.19;88.72;100896.63;4996337;28;20053;-83
2022/05/11 00:11:19;;;;;;;11.60;9.65;;;;;;;11.15;88.70;100890.59;4996466;28;20030;-84
2022/05/11 00:13:44;;;;;;;12.80;11.45;;;;;;;11.15;89.47;100898.44;4979764;28;20026;-84
2022/05/11 00:16:11;;;;;;;12.98;10.43;;;;;;;11.18;89.91;100894.91;4996096;28;20109;-84
2022/05/11 00:18:37;;;;;;;11.70;10.55;;;;;;;11.16;89.26;100891.44;4980331;28;20030;-85
2022/05/11 00:21:02;;;;;;;11.70;9.95;;;;;;;11.16;89.04;100891.44;4996149;28;20217;-84
2022/05/11 00:23:27;;;;;;;13.95;11.38;;;;;;;11.15;89.04;100889.72;4982709;28;20686;-83
2022/05/11 00:25:53;;;;;;;11.60;10.43;;;;;;;11.14;89.08;100888.00;4983869;28;20050;-84
2022/05/11 00:28:18;;;;;;;13.55;10.73;;;;;;;11.18;89.74;100887.06;4983862;28;20018;-84
2022/05/11 00:30:43;;;;;;;11.25;10.07;;;;;;;11.23;90.31;100887.00;4983770;28;20022;-84
2022/05/11 00:33:13;;;;;;;11.63;10.05;;;;;;;11.19;89.64;100891.41;4999566;28;20543;-84
2022/05/11 00:35:38;;;;;;;11.07;9.80;;;;;;;11.17;89.51;100887.97;4983192;28;20026;-83
2022/05/11 00:38:04;;;;;;;11.55;10.15;;;;;;;11.20;88.65;100897.50;4983340;28;20029;-84
2022/05/11 00:40:30;;;;;;;15.30;10.75;;;;;;;11.17;89.82;100898.41;4983296;28;20026;-84
2022/05/11 00:42:55;;;;;;;15.80;11.00;;;;;;;11.15;89.73;100889.72;4983228;28;20021;-84
2022/05/11 00:45:21;;;;;;;10.10;9.18;;;;;;;11.21;89.86;100887.03;4983623;28;20366;-84
2022/05/11 00:47:54;;;;;;;12.35;11.18;;;;;;;11.23;89.21;100882.63;4983690;28;20025;-85
2022/05/11 00:50:24;;;;;;;11.95;10.50;;;;;;;11.22;89.15;100880.91;5001148;28;20054;-83
2022/05/11 00:52:53;;;;;;;10.95;9.85;;;;;;;11.21;89.30;100878.28;4983406;28;20022;-84
2022/05/11 00:55:34;;;;;;;11.10;9.88;;;;;;;11.14;89.17;100870.56;4982748;28;20022;-84
2022/05/11 00:58:03;;;;;;;11.02;9.95;;;;;;;11.10;89.67;100870.66;4982645;28;20057;-84
2022/05/11 01:00:29;;;;;;;11.38;10.25;;;;;;;11.15;89.25;100874.03;4998300;28;20075;-84
2022/05/11 01:03:05;;;;;;;14.10;11.20;;;;;;;11.19;89.47;100873.09;4998560;28;20026;-83
2022/05/11 01:05:30;;;;;;;11.63;10.45;;;;;;;11.22;89.97;100874.78;4981977;28;20064;-84
2022/05/11 01:07:56;;;;;;;11.40;10.40;;;;;;;11.23;89.67;100866.94;4982167;28;20030;-84
2022/05/11 01:10:23;;;;;;;12.43;11.15;;;;;;;11.23;89.42;100860.84;4998156;28;20558;-84
2022/05/11 01:12:51;;;;;;;15.05;11.07;;;;;;;11.24;89.19;100867.81;4982022;28;20029;-84
2022/05/11 01:15:18;;;;;;;12.98;11.55;;;;;;;11.20;89.18;100866.97;4982168;28;20394;-84
2022/05/11 01:17:44;;;;;;;13.98;11.02;;;;;;;11.18;89.75;100863.53;4981808;28;20022;-84
2022/05/11 01:20:17;;;;;;;15.65;11.40;;;;;;;11.18;89.63;100868.78;4981716;28;20033;-83
2022/05/11 01:22:51;;;;;;;15.73;11.35;;;;;;;11.23;89.40;100863.47;4982308;28;20188;-84
2022/05/11 01:25:16;;;;;;;12.70;11.50;;;;;;;11.19;89.33;100853.94;4981948;28;20062;-84
2022/05/11 01:27:44;;;;;;;12.35;11.20;;;;;;;11.20;89.68;100860.91;4981750;28;20448;-84
2022/05/11 01:30:17;;;;;;;11.73;10.73;;;;;;;11.20;89.56;100845.22;4998386;28;20025;-84
2022/05/11 01:32:45;;;;;;;12.73;11.32;;;;;;;11.17;89.49;100843.50;4981648;28;20389;-84
2022/05/11 01:35:38;;;;;;;14.15;11.52;;;;;;;11.23;89.33;100848.63;4980522;28;20028;-84
2022/05/11 01:38:19;;;;;;;11.93;10.80;;;;;;;11.21;89.74;100832.09;4997852;28;20109;-83
2022/05/11 01:40:44;;;;;;;13.75;10.82;;;;;;;11.20;89.84;100830.38;4998531;28;20041;-84
2022/05/11 01:43:19;;;;;;;12.27;11.20;;;;;;;11.22;89.83;100832.97;4997247;28;20470;-84
2022/05/11 01:45:44;;;;;;;12.02;10.93;;;;;;;11.25;90.46;100832.94;4980944;28;20065;-84
2022/05/11 01:48:10;;;;;;;17.38;12.23;;;;;;;11.29;90.29;100835.47;4980931;28;20072;-84
2022/05/11 01:50:35;;;;;;;13.45;12.15;;;;;;;11.33;89.40;100825.81;4996925;28;20113;-83
2022/05/11 01:53:00;;;;;;;14.50;13.02;;;;;;;11.35;89.58;100817.94;4997374;28;20030;-83
2022/05/11 01:55:26;;;;;;;13.48;12.20;;;;;;;11.37;89.41;100821.38;4980875;28;20444;-84
2022/05/11 01:57:51;;;;;;;14.82;12.63;;;;;;;11.42;90.04;100815.16;4980769;28;20049;-83
2022/05/11 02:00:17;;;;;;;14.65;13.15;;;;;;;11.37;89.58;100810.91;4980287;28;20715;-84
2022/05/11 02:02:42;;;;;;;13.40;12.00;;;;;;;11.39;89.88;100815.22;4979326;28;20068;-84
2022/05/11 02:07:51;;;;;;;15.05;12.48;;;;;;;11.39;89.42;100830.06;5040612;28;20032;-84
2022/05/11 02:10:22;;;;;;;13.88;12.48;;;;;;;11.37;88.07;100821.38;5037210;28;20032;-84
2022/05/11 02:12:48;;;;;;;13.25;12.00;;;;;;;11.40;88.95;100818.69;5037320;28;20028;-84
2022/05/11 02:15:14;;;;;;;12.80;11.70;;;;;;;11.39;89.63;100809.16;5038729;28;20025;-84
2022/05/11 02:17:43;;;;;;;15.38;12.07;;;;;;;11.44;88.71;100817.78;5057543;28;20053;-84
2022/05/11 02:20:10;;;;;;;13.00;11.70;;;;;;;11.46;88.32;100816.00;5057375;28;20060;-85
2022/05/11 02:22:35;;;;;;;12.18;10.98;;;;;;;11.41;89.04;100797.78;5041018;28;20040;-84
2022/05/11 02:25:01;;;;;;;13.25;11.13;;;;;;;11.42;89.29;100804.72;5040667;28;20514;-84
2022/05/11 02:27:26;;;;;;;12.68;11.48;;;;;;;11.33;88.69;100791.81;5057331;28;20037;-84
2022/05/11 02:29:51;;;;;;;12.07;10.98;;;;;;;11.31;89.52;100786.59;5040763;28;20139;-84
2022/05/11 02:32:17;;;;;;;10.88;9.98;;;;;;;11.30;88.88;100779.66;5040254;28;20044;-84
2022/05/11 02:37:26;;;;;;;12.10;11.02;;;;;;;11.25;89.65;100780.63;5059300;28;20043;-84
2022/05/11 02:39:51;;;;;;;12.35;11.20;;;;;;;11.28;90.01;100780.56;5039659;28;20518;-84
2022/05/11 02:42:17;;;;;;;13.23;11.93;;;;;;;11.26;90.02;100772.75;5056912;28;20519;-84
2022/05/11 02:44:42;;;;;;;12.35;11.25;;;;;;;11.28;89.00;100778.81;5040094;28;20020;-84
2022/05/11 02:47:08;;;;;;;12.27;11.15;;;;;;;11.27;89.43;100778.84;5039823;28;20028;-84
2022/05/11 02:49:33;;;;;;;13.00;11.82;;;;;;;11.24;89.80;100784.97;5040054;28;20111;-84
2022/05/11 02:51:58;;;;;;;12.32;11.23;;;;;;;11.25;89.29;100776.25;5057003;28;20032;-84
2022/05/11 02:54:24;;;;;;;11.73;10.55;;;;;;;11.25;89.55;100776.25;5041036;28;20029;-84
2022/05/11 02:56:49;;;;;;;11.50;10.15;;;;;;;11.28;89.61;100780.56;5040146;28;20036;-84
2022/05/11 02:59:15;;;;;;;14.00;12.25;;;;;;;11.25;89.80;100771.03;5039690;28;20483;-84
2022/05/11 03:01:40;;;;;;;12.77;11.68;;;;;;;11.23;89.46;100775.41;5041121;28;20476;-84
2022/05/11 03:04:06;;;;;;;11.55;10.55;;;;;;;11.25;89.84;100778.03;5058449;28;20463;-84
2022/05/11 03:06:31;;;;;;;12.02;11.00;;;;;;;11.22;89.82;100781.56;5042278;28;20031;-84
2022/05/11 03:08:56;;;;;;;11.98;10.77;;;;;;;11.22;89.51;100781.56;5042444;28;20110;-84
2022/05/11 03:11:22;;;;;;;11.93;10.70;;;;;;;11.20;89.83;100778.09;5042634;28;20026;-84
2022/05/11 03:13:47;;;;;;;13.25;12.00;;;;;;;11.28;89.58;100781.44;5042583;28;20032;-84
2022/05/11 03:16:13;;;;;;;12.27;11.18;;;;;;;11.25;89.42;100778.03;5059960;28;20107;-84
2022/05/11 03:18:38;;;;;;;13.52;12.23;;;;;;;11.24;89.61;100778.91;5041790;28;20032;-84
2022/05/11 03:21:03;;;;;;;12.60;11.40;;;;;;;11.31;89.16;100783.13;5057786;28;20047;-84
2022/05/11 03:23:29;;;;;;;12.80;11.60;;;;;;;11.30;88.98;100778.78;5041369;28;20016;-84
2022/05/11 03:25:55;;;;;;;11.68;10.68;;;;;;;11.30;89.47;100779.66;5041548;28;20039;-84
2022/05/11 03:28:20;;;;;;;12.35;11.30;;;;;;;11.27;89.57;100774.47;5042168;28;20088;-84
2022/05/11 03:30:46;;;;;;;11.98;10.98;;;;;;;11.29;89.21;100767.47;5057853;28;20049;-84
2022/05/11 03:35:55;;;;;;;12.27;11.05;;;;;;;11.28;89.39;100760.50;5061472;28;20534;-84
2022/05/11 03:38:20;;;;;;;13.43;11.90;;;;;;;11.25;89.85;100755.34;5041889;28;20032;-84
2022/05/11 03:40:46;;;;;;;12.50;11.35;;;;;;;11.25;89.84;100752.72;5041615;28;20044;-84
2022/05/11 03:43:11;;;;;;;13.77;12.18;;;;;;;11.20;89.42;100746.72;5058517;28;20790;-85
2022/05/11 03:45:36;;;;;;;13.23;11.43;;;;;;;11.23;89.64;100746.66;5058534;28;20495;-85
2022/05/11 03:48:03;;;;;;;13.32;12.02;;;;;;;11.25;89.93;100744.88;5042641;28;20120;-84
2022/05/11 03:50:28;;;;;;;13.77;12.30;;;;;;;11.27;88.82;100743.09;5042025;28;20021;-85
2022/05/11 03:52:55;;;;;;;13.35;12.05;;;;;;;11.22;89.79;100752.78;5042575;28;20029;-85
2022/05/11 03:55:22;;;;;;;13.30;12.20;;;;;;;11.23;89.80;100746.66;5042175;28;20458;-84
2022/05/11 03:57:47;;;;;;;13.55;12.10;;;;;;;11.29;90.14;100737.84;5044320;28;20028;-85
2022/05/11 04:00:21;;;;;;;13.60;12.32;;;;;;;11.29;89.48;100733.47;5062892;28;20031;-84
2022/05/11 04:02:47;;;;;;;12.77;11.68;;;;;;;11.27;89.54;100711.69;5047529;28;20051;-85
2022/05/11 04:05:14;;;;;;;13.95;12.55;;;;;;;11.24;90.22;100717.00;5048800;28;20032;-85
2022/05/11 04:07:40;;;;;;;14.07;12.68;;;;;;;11.26;90.01;100717.84;5045931;28;20025;-85
2022/05/11 04:10:07;;;;;;;16.73;13.57;;;;;;;11.35;90.16;100731.66;5044608;28;20028;-84
2022/05/11 04:12:34;;;;;;;14.73;13.32;;;;;;;11.32;89.68;100724.72;5045461;28;20031;-85
2022/05/11 04:14:59;;;;;;;16.33;12.93;;;;;;;11.29;90.18;100725.63;5046540;28;20039;-86
2022/05/11 04:17:25;;;;;;;18.25;12.68;;;;;;;11.32;89.53;100724.72;5064991;28;20087;-86
2022/05/11 04:19:50;;;;;;;15.18;13.77;;;;;;;11.31;90.28;100726.44;5047663;28;20024;-86
2022/05/11 04:22:16;;;;;;;14.75;13.35;;;;;;;11.37;90.18;100720.25;5064786;28;20102;-86
2022/05/11 04:24:41;;;;;;;14.35;12.95;;;;;;;11.37;90.22;100722.00;5047702;28;20021;-86
2022/05/11 04:27:06;;;;;;;14.25;12.93;;;;;;;11.42;90.55;100725.41;5047590;28;20450;-87
2022/05/11 04:29:32;;;;;;;14.88;13.38;;;;;;;11.46;90.25;100720.06;5046955;28;20483;-86
2022/05/11 04:31:58;;;;;;;13.95;12.43;;;;;;;11.46;90.52;100712.22;5064130;28;20112;-86
2022/05/11 04:34:24;;;;;;;15.60;13.95;;;;;;;11.49;90.19;100712.19;5048478;28;20024;-86
2022/05/11 04:36:49;;;;;;;15.68;14.13;;;;;;;11.56;89.87;100715.53;5047855;28;20055;-86
2022/05/11 04:39:15;;;;;;;16.13;14.50;;;;;;;11.53;90.02;100702.50;5066098;28;20024;-85
2022/05/11 04:41:41;;;;;;;15.75;14.13;;;;;;;11.57;90.09;100708.53;5048531;28;20419;-86
2022/05/11 04:44:06;;;;;;;14.05;12.70;;;;;;;11.59;89.75;100711.97;5046161;28;20055;-85
2022/05/11 04:46:33;;;;;;;15.18;13.57;;;;;;;11.57;90.17;100713.78;5046807;28;20020;-84
2022/05/11 04:49:19;;;;;;;16.25;14.65;;;;;;;11.57;89.87;100705.91;5043358;28;20026;-86
2022/05/11 04:52:08;;;;;;;15.02;13.63;;;;;;;11.63;90.60;100709.28;5044538;28;20017;-86
2022/05/11 04:54:49;;;;;;;15.95;14.32;;;;;;;11.59;90.21;100694.53;5059067;28;20024;-87
2022/05/11 04:57:16;;;;;;;16.70;14.25;;;;;;;11.70;89.81;100698.66;5041842;28;20498;-87
2022/05/11 04:59:41;;;;;;;16.75;15.13;;;;;;;11.74;90.34;100700.31;5058480;28;20065;-82
2022/05/11 05:02:13;;;;;;;17.73;14.50;;;;;;;11.77;90.02;100701.13;5044262;28;20024;-84
2022/05/11 05:04:39;;;;;;;15.52;13.98;;;;;;;11.80;89.61;100711.53;5042259;28;20116;-85
2022/05/11 05:07:04;;;;;;;16.38;14.68;;;;;;;11.81;90.09;100699.31;5059126;28;20047;-85
2022/05/11 05:09:29;;;;;;;16.15;14.48;;;;;;;11.83;89.66;100700.13;5027390;28;20518;-85
2022/05/11 05:11:55;;;;;;;17.67;15.23;;;;;;;11.84;89.99;100702.72;5043622;28;20052;-85
2022/05/11 05:14:20;;;;;;;17.90;16.08;;;;;;;11.83;88.84;100706.25;5043820;28;20025;-85
2022/05/11 05:16:45;;;;;;;16.63;15.02;;;;;;;11.83;89.11;100700.13;5043624;28;20037;-85
2022/05/11 05:19:11;;;;;;;17.23;15.15;;;;;;;11.81;89.05;100687.09;5043505;28;20112;-87
2022/05/11 05:21:37;;;;;;;15.77;14.18;;;;;;;11.84;88.60;100701.88;5042915;28;20023;-84
2022/05/11 05:24:02;;;;;;;16.35;14.65;;;;;;;11.87;89.57;100696.56;5059948;28;20548;-84
2022/05/11 05:26:28;;;;;;;15.80;14.07;;;;;;;11.87;88.66;100693.94;5042400;28;20459;-84
2022/05/11 05:31:37;;;;;;;17.08;15.07;;;;;;;11.92;89.30;100686.88;5041384;28;20113;-83
2022/05/11 05:34:03;;;;;;;17.02;15.07;;;;;;;11.92;89.01;100692.09;5040640;28;20140;-85
2022/05/11 05:36:35;;;;;;;17.55;15.05;;;;;;;11.94;89.81;100685.13;5041413;28;20054;-84
2022/05/11 05:39:01;;;;;;;14.88;13.38;;;;;;;11.96;89.28;100691.16;5053581;28;20136;-83
2022/05/11 05:41:27;;;;;;;17.50;15.80;;;;;;;11.96;89.50;100695.56;5036053;28;20500;-84
2022/05/11 05:43:53;;;;;;;15.77;14.27;;;;;;;12.03;90.16;100685.81;5054752;28;20070;-85
2022/05/11 05:46:19;;;;;;;15.93;14.32;;;;;;;11.96;89.20;100691.16;5037953;28;20388;-85
2022/05/11 05:48:45;;;;;;;17.23;14.70;;;;;;;11.99;89.36;100680.63;5037273;28;20027;-87
2022/05/11 05:51:13;;;;;;;16.75;14.98;;;;;;;12.03;90.63;100685.81;5036362;28;20050;-85
2022/05/11 05:53:42;;;;;;;19.13;16.10;;;;;;;12.06;90.56;100685.72;5037283;28;20087;-84
2022/05/11 05:56:08;;;;;;;16.45;14.65;;;;;;;12.07;90.55;100690.06;5037764;28;20086;-83
2022/05/11 05:58:34;;;;;;;18.92;15.20;;;;;;;12.06;90.90;100690.97;5037096;28;20051;-84
2022/05/11 06:00:59;;;;;;;16.90;15.30;;;;;;;12.08;90.91;100689.16;5036592;28;20468;-83
2022/05/11 06:03:31;;;;;;;16.00;14.43;;;;;;;12.05;90.93;100686.63;5020351;28;20066;-83
2022/05/11 06:05:56;;;;;;;17.23;15.02;;;;;;;12.08;91.20;100691.78;5053197;28;20400;-84
2022/05/11 06:08:23;;;;;;;18.70;15.55;;;;;;;12.12;91.70;100690.81;5037254;28;20028;-84
2022/05/11 06:10:49;;;;;;;18.70;16.38;;;;;;;12.14;90.70;100683.78;5020573;28;20021;-84
2022/05/11 06:13:17;;;;;;;18.50;16.70;;;;;;;12.13;91.30;100671.59;5036538;28;20067;-83
2022/05/11 06:15:42;;;;;;;19.25;17.33;;;;;;;12.14;91.45;100682.03;5053525;28;20024;-84
2022/05/11 06:18:09;;;;;;;19.67;17.65;;;;;;;12.13;91.72;100679.44;5054378;28;20021;-84
2022/05/11 06:20:35;;;;;;;20.35;18.05;;;;;;;12.14;91.41;100679.41;5053235;28;20025;-84
2022/05/11 06:23:03;;;;;;;23.70;18.08;;;;;;;12.13;91.43;100668.97;5037763;28;20090;-83
2022/05/11 06:25:28;;;;;;;20.38;18.20;;;;;;;12.16;91.18;100672.41;5037655;28;20112;-84
2022/05/11 06:27:54;;;;;;;19.52;17.40;;;;;;;12.18;91.59;100667.13;5037951;28;20055;-84
2022/05/11 06:30:19;;;;;;;19.58;17.67;;;;;;;12.20;91.62;100651.38;5037366;28;20040;-84
2022/05/11 06:32:44;;;;;;;19.75;17.65;;;;;;;12.30;91.62;100653.72;5036859;28;20083;-83
2022/05/11 06:35:10;;;;;;;19.15;17.20;;;;;;;12.37;90.97;100649.22;5053535;28;20036;-84
2022/05/11 06:37:38;;;;;;;21.70;17.45;;;;;;;12.47;90.60;100655.06;5036683;28;20032;-84
2022/05/11 06:40:04;;;;;;;18.50;15.40;;;;;;;12.46;90.17;100658.59;5052932;28;20028;-83
2022/05/11 06:42:31;;;;;;;17.30;15.50;;;;;;;12.50;89.75;100660.22;5036761;28;20017;-83
2022/05/11 06:44:56;;;;;;;17.60;15.82;;;;;;;12.54;89.92;100656.63;5020412;28;20138;-84
2022/05/11 06:47:22;;;;;;;16.88;14.23;;;;;;;12.57;89.70;100653.09;5053481;28;20039;-84
2022/05/11 06:49:47;;;;;;;16.05;14.15;;;;;;;12.65;89.40;100653.75;5037134;28;20026;-84
2022/05/11 06:52:13;;;;;;;13.60;12.20;;;;;;;12.62;86.46;100644.19;5019909;28;20024;-83
2022/05/11 07:00:11;;;;;;;12.77;10.10;;;;;;;12.72;84.64;100647.47;5052478;28;20101;-83
2022/05/11 07:02:37;;;;;;;10.45;9.43;;;;;;;12.73;83.86;100643.06;5033397;28;20017;-84
2022/05/11 07:05:05;;;;;;;11.18;9.82;;;;;;;12.73;83.38;100656.19;5034285;28;20031;-83
2022/05/11 07:07:30;;;;;;;9.95;9.13;;;;;;;12.74;83.58;100656.13;5035193;28;20025;-83
2022/05/11 07:09:55;;;;;;;9.98;8.98;;;;;;;12.74;83.19;100647.44;5035012;28;20036;-83
2022/05/11 07:12:21;;;;;;;9.98;9.00;;;;;;;12.75;81.80;100657.00;5036444;28;20021;-83
2022/05/11 07:14:53;;;;;;;9.77;8.70;;;;;;;12.82;83.19;100663.81;5035923;28;20335;-84
2022/05/11 07:17:33;;;;;;;9.68;8.68;;;;;;;12.84;82.64;100656.75;5036335;28;20036;-83
2022/05/11 07:20:01;;;;;;;11.65;10.23;;;;;;;12.83;83.15;100652.44;5022694;28;20024;-83
2022/05/11 07:22:26;;;;;;;10.63;9.52;;;;;;;12.79;84.28;100651.66;5037726;28;20381;-84
2022/05/11 07:24:52;;;;;;;10.38;8.85;;;;;;;12.81;84.62;100655.06;5038658;28;20039;-84
2022/05/11 07:27:18;;;;;;;13.48;8.13;;;;;;;12.82;82.16;100653.34;5037902;28;20052;-85
2022/05/11 07:29:43;;;;;;;10.15;9.13;;;;;;;12.85;83.29;100650.63;5037681;28;20036;-84
2022/05/11 07:32:09;;;;;;;11.35;8.75;;;;;;;12.87;83.74;100659.31;5039858;28;20391;-84
2022/05/11 07:34:35;;;;;;;8.32;7.78;;;;;;;12.82;81.34;100634.97;5039658;28;20052;-84
2022/05/11 07:37:00;;;;;;;9.65;8.75;;;;;;;12.88;82.67;100640.03;5037492;28;20492;-84
2022/05/11 07:39:26;;;;;;;9.13;8.43;;;;;;;12.89;82.98;100636.53;5039413;28;20120;-84
2022/05/11 07:41:51;;;;;;;12.80;8.57;;;;;;;12.88;84.25;100645.28;5054955;28;20021;-84
2022/05/11 07:44:17;;;;;;;9.85;8.90;;;;;;;12.88;84.01;100642.66;5038258;28;20040;-84
2022/05/11 07:46:43;;;;;;;10.32;9.25;;;;;;;12.88;83.45;100640.03;5038983;28;20025;-84
2022/05/11 07:49:09;;;;;;;10.40;8.43;;;;;;;12.83;82.89;100636.72;5039867;28;20091;-84
2022/05/11 07:51:35;;;;;;;10.60;8.77;;;;;;;12.85;85.51;100635.75;5038304;28;20067;-85
2022/05/11 07:54:00;;;;;;;9.25;8.43;;;;;;;12.80;83.73;100626.28;5040398;28;20029;-86
2022/05/11 08:01:53;;;;;;;10.43;9.35;;;;;;;12.99;86.25;100627.53;5040315;28;20035;-85
2022/05/11 08:04:19;;;;;;;11.40;9.27;;;;;;;12.99;84.74;100624.03;5038147;28;20403;-85
2022/05/11 08:06:44;;;;;;;10.38;9.43;;;;;;;13.05;86.27;100642.22;5037895;28;20024;-85
2022/05/11 08:09:10;;;;;;;9.38;8.38;;;;;;;13.06;84.60;100636.09;5055722;28;20464;-85
2022/05/11 08:11:36;;;;;;;9.77;8.82;;;;;;;13.12;83.09;100640.31;5037893;28;20017;-85
2022/05/11 08:14:01;;;;;;;9.65;8.70;;;;;;;13.18;83.01;100635.75;5038385;28;20032;-85
2022/05/11 08:16:28;;;;;;;9.18;8.38;;;;;;;13.16;82.59;100618.34;5039637;28;20025;-85
2022/05/11 08:18:54;;;;;;;9.27;8.52;;;;;;;13.26;81.16;100619.78;5039148;28;20021;-85
2022/05/11 08:21:19;;;;;;;9.25;8.40;;;;;;;13.37;82.45;100610.78;5039169;28;20108;-86
2022/05/11 08:23:46;;;;;;;9.52;8.73;;;;;;;13.51;85.21;100613.84;5040846;28;20037;-85
2022/05/11 08:26:11;;;;;;;9.52;8.52;;;;;;;13.64;81.94;100615.19;5039616;28;20025;-85
2022/05/11 08:28:37;;;;;;;9.63;8.52;;;;;;;13.78;81.71;100611.28;5021922;28;20062;-86
2022/05/11 08:33:47;;;;;;;10.27;8.63;;;;;;;14.00;81.28;100601.84;5042935;28;20087;-85
2022/05/11 08:36:16;;;;;;;8.57;7.82;;;;;;;14.18;77.95;100605.63;5039849;28;20025;-85
2022/05/11 08:38:44;;;;;;;9.32;7.82;;;;;;;14.27;77.26;100598.38;5023555;28;20036;-85
2022/05/11 08:41:45;;;;;;;9.50;7.25;;;;;;;14.30;75.36;100599.13;5023510;28;20029;-85
2022/05/11 08:44:32;;;;;;;7.38;6.68;;;;;;;14.28;76.42;100595.69;5029313;28;20496;-85
2022/05/11 08:47:12;;;;;;;10.68;7.80;;;;;;;14.17;78.67;100597.81;5024531;28;20033;-85
2022/05/11 08:49:54;;;;;;;8.27;7.65;;;;;;;14.23;75.91;100596.75;5023104;28;20044;-84
2022/05/11 08:52:24;;;;;;;7.38;6.78;;;;;;;14.23;75.63;100602.84;5054438;28;20603;-85
2022/05/11 08:54:58;;;;;;;7.30;6.75;;;;;;;14.23;74.69;100599.38;5038249;28;20037;-85
2022/05/11 08:57:26;;;;;;;8.05;7.25;;;;;;;14.16;77.40;100599.56;5022676;28;20104;-85
2022/05/11 09:00:03;;;;;;;7.60;6.80;;;;;;;14.17;76.50;100592.56;5038804;28;20111;-85
2022/05/11 09:02:28;;;;;;;7.55;6.70;;;;;;;14.16;77.72;100596.09;5020824;28;20472;-85
2022/05/11 09:04:56;;;;;;;9.07;7.88;;;;;;;14.13;78.49;100593.56;5054644;28;20040;-86
2022/05/11 09:07:22;;;;;;;7.85;7.28;;;;;;;14.21;79.05;100594.19;5038126;28;20021;-85
2022/05/11 09:09:48;;;;;;;8.63;7.82;;;;;;;14.29;77.81;100601.78;5021982;28;20031;-85
2022/05/11 09:12:13;;;;;;;7.10;6.70;;;;;;;14.52;73.33;100583.50;5037227;28;20495;-83
2022/05/11 09:14:47;;;;;;;7.15;6.60;;;;;;;14.63;73.53;100571.75;5037519;28;20049;-84
2022/05/11 09:17:24;;;;;;;6.80;6.35;;;;;;;14.92;71.91;100581.25;5038478;28;20066;-84
2022/05/11 09:20:04;;;;;;;8.02;7.25;;;;;;;14.97;72.97;100578.44;5037646;28;20147;-83
2022/05/11 09:22:31;;;;;;;7.82;6.50;;;;;;;15.13;71.33;100579.59;5053396;28;20024;-84
2022/05/11 09:25:00;;;;;;;7.20;6.57;;;;;;;15.27;70.50;100570.34;5057688;28;20403;-84
2022/05/11 09:27:28;;;;;;;9.02;6.85;;;;;;;15.37;71.20;100572.56;5072008;28;20020;-84
2022/05/11 09:30:16;;;;;;;8.63;6.88;;;;;;;15.55;69.22;100575.41;5074035;28;20032;-83
2022/05/11 09:32:44;;;;;;;7.97;6.43;;;;;;;15.63;67.19;100560.16;5056499;28;20107;-84
2022/05/11 09:35:33;;;;;;;8.02;6.40;;;;;;;15.75;64.73;100571.13;5063575;28;20032;-84
2022/05/11 09:38:05;;;;;;;6.05;5.57;;;;;;;15.72;64.66;100565.09;5028400;28;20029;-84
2022/05/11 09:40:32;;;;;;;7.85;6.10;;;;;;;15.81;64.36;100570.94;5036946;28;20028;-84
2022/05/11 09:43:04;;;;;;;6.00;5.43;;;;;;;15.83;66.77;100577.84;5021207;28;20037;-84
2022/05/11 09:45:48;;;;;;;5.78;5.15;;;;;;;15.83;63.12;100562.06;5020795;28;20025;-83
2022/05/11 09:48:18;;;;;;;5.22;4.75;;;;;;;15.79;66.14;100556.91;5020010;28;20502;-84
2022/05/11 09:50:44;;;;;;;5.90;4.75;;;;;;;15.86;63.94;100553.16;5039151;28;20029;-83
2022/05/11 09:53:25;;;;;;;5.30;4.90;;;;;;;15.85;63.87;100552.28;5039806;28;20115;-83
2022/05/11 09:55:50;;;;;;;6.82;4.85;;;;;;;15.98;63.53;100544.75;5039054;28;20020;-83
2022/05/11 09:58:32;;;;;;;6.20;5.03;;;;;;;16.08;62.67;100553.16;5039934;28;20418;-83
2022/05/11 10:01:10;;;;;;;5.60;5.10;;;;;;;16.07;63.37;100542.66;5039301;28;20020;-83
2022/05/11 10:03:41;;;;;;;7.13;4.97;;;;;;;16.18;63.17;100564.16;5056038;28;20063;-83
2022/05/11 10:06:07;;;;;;;5.32;4.82;;;;;;;16.26;61.80;100551.50;5039113;28;20032;-84
2022/05/11 10:08:36;;;;;;;5.07;4.78;;;;;;;16.27;62.20;100542.69;5040046;28;20020;-83
2022/05/11 10:11:10;;;;;;;7.03;5.22;;;;;;;16.35;64.34;100548.50;5039320;28;20111;-83
2022/05/11 10:13:40;;;;;;;6.50;5.57;;;;;;;16.29;63.66;100551.41;5039862;28;20472;-85
2022/05/11 10:22:10;;;;;;;5.78;5.40;;;;;;;16.68;60.26;100545.31;5040637;28;20054;-84
2022/05/11 10:24:50;;;;;;;5.75;5.15;;;;;;;16.75;60.91;100537.13;5054381;28;20067;-85
2022/05/11 10:27:38;;;;;;;6.07;5.50;;;;;;;16.90;60.97;100539.09;5056965;28;20489;-84
2022/05/11 10:30:18;;;;;;;6.18;5.65;;;;;;;16.96;59.48;100546.75;5038943;28;20021;-85
2022/05/11 10:33:09;;;;;;;5.47;4.97;;;;;;;17.03;60.51;100526.25;5040571;28;20052;-85
2022/05/11 10:35:46;;;;;;;8.00;5.07;;;;;;;17.13;59.22;100547.78;5056899;28;20025;-84
2022/05/11 10:38:31;;;;;;;4.90;4.60;;;;;;;17.24;59.73;100532.28;5056703;28;20028;-84
2022/05/11 10:41:07;;;;;;;;;;;;;;;17.27;60.11;100539.22;5056335;28;20020;-85
2022/05/11 10:43:53;;;;;;;7.13;4.63;;;;;;;17.35;59.11;100537.06;5039884;28;19920;-85
2022/05/11 10:46:23;;;;;;;5.05;4.65;;;;;;;17.55;57.28;100529.06;5039202;28;20029;-85
2022/05/11 10:49:13;;;;;;;5.07;4.25;;;;;;;17.55;58.99;100533.50;5056632;28;20035;-84
2022/05/11 10:52:11;;;;;;;4.82;4.25;;;;;;;17.47;58.33;100522.44;5037170;28;20518;-85
2022/05/11 10:54:47;;;;;;;5.57;4.57;;;;;;;17.33;59.47;100526.59;5055723;28;20119;-84
2022/05/11 10:57:22;;;;;;;5.57;5.07;;;;;;;17.36;59.20;100530.88;5056237;28;20031;-85
2022/05/11 11:00:18;;;;;;;4.82;4.45;;;;;;;17.33;61.07;100541.53;5073632;28;20081;-85
2022/05/11 11:02:58;;;;;;;7.35;5.25;;;;;;;17.44;59.13;100539.28;5054029;28;20634;-84
2022/05/11 11:05:46;;;;;;;5.93;5.38;;;;;;;17.49;58.88;100533.78;5056002;28;20051;-84
2022/05/11 11:08:31;;;;;;;5.97;5.35;;;;;;;17.67;58.05;100526.75;5039037;28;20103;-84
2022/05/11 11:11:13;;;;;;;;;;;;;;;17.85;56.66;100546.16;5055740;28;20066;-84
2022/05/11 11:13:54;;;;;;;6.00;5.38;;;;;;;18.02;57.91;100532.13;5039012;28;19952;-84
2022/05/11 11:16:21;;;;;;;5.25;4.90;;;;;;;18.28;58.31;100501.72;5056300;28;20025;-84
2022/05/11 11:18:49;;;;;;;5.57;5.18;;;;;;;18.57;56.04;100517.88;5040423;28;20126;-84
2022/05/11 11:21:16;;;;;;;7.63;6.18;;;;;;;18.73;55.77;100516.13;5056834;28;20364;-84
2022/05/11 11:23:45;;;;;;;7.30;5.47;;;;;;;18.49;55.54;100499.75;5040218;28;20024;-84
2022/05/11 11:26:12;;;;;;;8.25;5.40;;;;;;;18.78;54.22;100493.84;5040603;28;20042;-84
2022/05/11 11:28:40;;;;;;;9.57;4.13;;;;;;;18.80;56.29;100491.97;5056774;28;20025;-84
2022/05/11 11:31:09;;;;;;;6.18;5.63;;;;;;;18.87;55.15;100494.22;5056109;28;20476;-84
2022/05/11 11:33:39;;;;;;;5.38;4.95;;;;;;;19.13;56.00;100501.69;5073993;28;20021;-84
2022/05/11 11:36:31;;;;;;;5.72;5.20;;;;;;;18.87;55.08;100488.91;5021559;28;20021;-84
2022/05/11 11:38:59;;;;;;;6.10;5.10;;;;;;;18.84;55.99;100464.41;5038287;28;20032;-84
2022/05/11 11:41:32;;;;;;;8.55;5.97;;;;;;;19.01;54.44;100468.81;5037322;28;20115;-84
2022/05/11 11:44:06;;;;;;;6.28;5.65;;;;;;;19.08;53.16;100455.13;5038397;28;20075;-84
2022/05/11 11:46:38;;;;;;;5.93;5.43;;;;;;;19.30;54.00;100469.81;5020306;28;20025;-84
2022/05/11 11:49:19;;;;;;;6.40;5.90;;;;;;;19.13;52.90;100476.09;5054320;28;20083;-84
2022/05/11 11:51:50;;;;;;;5.88;5.35;;;;;;;19.32;53.12;100473.25;5055577;28;20032;-84
2022/05/11 11:54:46;;;;;;;5.75;5.32;;;;;;;19.15;53.58;100458.31;5037549;28;20075;-84
2022/05/11 11:57:16;;;;;;;4.80;4.40;;;;;;;19.56;52.90;100472.78;5021851;28;20021;-84